Time;durP1;ratioP1;P1;durP2;ratioP2;P2;SDS_P1;SDS_P2;PMS_P1;PMS_P2;Temp;Humidity;BMP_temperature;BMP_pressure;BME280_temperature;BME280_humidity;BME280_pressure;Samples;Min_cycle;Max_cycle;Signal;HPM_P1;HPM_P2
2024/03/04 00:02:32;;;;;;;;;49.60;41.00;;;;;13.11;100.00;97873.22;6068531;23;98088;-57
2024/03/04 00:05:35;;;;;;;;;48.40;40.00;;;;;13.05;100.00;97877.78;6031296;29;96920;-55
2024/03/04 00:08:39;;;;;;;;;52.00;41.00;;;;;12.99;100.00;97870.72;6031275;29;96217;-55
2024/03/04 00:11:44;;;;;;;;;51.00;40.00;;;;;12.97;100.00;97873.69;6051975;23;98971;-58
2024/03/04 00:15:15;;;;;;;;;50.00;40.00;;;;;12.82;100.00;97872.78;6449596;23;98152;-55
2024/03/04 00:18:18;;;;;;;;;48.40;39.40;;;;;12.80;100.00;97866.81;6030463;28;96211;-56
2024/03/04 00:21:21;;;;;;;;;51.00;41.00;;;;;12.78;100.00;97868.97;6011803;28;97384;-57
2024/03/04 00:24:24;;;;;;;;;51.00;40.00;;;;;12.74;100.00;97868.69;6202145;23;97535;-56
2024/03/04 00:27:28;;;;;;;;;53.25;42.00;;;;;12.75;100.00;97864.91;6013698;28;96369;-58
2024/03/04 00:30:31;;;;;;;;;52.25;41.75;;;;;12.72;100.00;97872.69;6011252;28;96739;-58
2024/03/04 00:33:34;;;;;;;;;49.50;40.00;;;;;12.58;100.00;97872.34;6028411;28;96386;-56
2024/03/04 00:36:37;;;;;;;;;53.60;41.60;;;;;12.54;100.00;97874.75;6028676;28;96597;-59
2024/03/04 00:39:41;;;;;;;;;52.60;41.00;;;;;12.45;100.00;97872.78;6028470;28;96430;-56
2024/03/04 00:42:46;;;;;;;;;52.20;42.40;;;;;12.34;100.00;97866.47;6012469;28;97863;-57
2024/03/04 00:45:49;;;;;;;;;55.00;43.60;;;;;12.27;100.00;97868.56;6028455;28;96321;-57
2024/03/04 00:48:52;;;;;;;;;53.00;43.60;;;;;12.25;100.00;97873.44;6028123;28;96294;-57
2024/03/04 00:51:55;;;;;;;;;53.50;43.50;;;;;12.18;100.00;97872.81;6028183;28;96402;-57
2024/03/04 00:54:59;;;;;;;;;56.00;44.00;;;;;11.99;100.00;97874.25;6005425;28;96947;-57
2024/03/04 00:58:03;;;;;;;;;56.00;45.00;;;;;11.83;100.00;97851.66;5997510;29;97185;-57
2024/03/04 01:01:07;;;;;;;;;58.25;44.25;;;;;11.79;100.00;97879.44;5996769;29;96471;-57
2024/03/04 01:04:11;;;;;;;;;56.00;45.00;;;;;11.71;100.00;97870.72;5997276;29;96343;-57
2024/03/04 01:07:15;;;;;;;;;58.80;45.60;;;;;11.60;100.00;97871.66;5996620;29;96371;-57
2024/03/04 01:10:18;;;;;;;;;57.40;46.20;;;;;11.62;100.00;97874.13;5997261;29;96842;-57
2024/03/04 01:13:24;;;;;;;;;60.00;46.40;;;;;11.43;100.00;97859.31;5997323;29;96967;-57
2024/03/04 01:16:28;;;;;;;;;57.00;46.00;;;;;11.38;100.00;97870.88;5996806;29;96646;-57
2024/03/04 01:19:33;;;;;;;;;60.00;47.00;;;;;11.35;100.00;97871.34;5996762;29;96412;-57
2024/03/04 01:22:38;;;;;;;;;58.00;46.00;;;;;11.26;100.00;97872.84;5996908;29;96549;-57
2024/03/04 01:25:41;;;;;;;;;59.00;46.20;;;;;11.23;100.00;97871.50;5996204;29;96358;-57
2024/03/04 01:28:47;;;;;;;;;57.20;45.40;;;;;11.19;100.00;97872.25;5996602;29;96452;-57
2024/03/04 01:31:50;;;;;;;;;61.00;48.00;;;;;11.15;100.00;97871.91;5997078;29;96387;-57
2024/03/04 01:34:54;;;;;;;;;58.50;46.00;;;;;11.11;100.00;97868.09;5997082;29;96426;-57
2024/03/04 01:37:58;;;;;;;;;59.00;46.00;;;;;10.90;100.00;97854.59;5996246;29;97556;-59
2024/03/04 01:41:01;;;;;;;;;60.75;46.75;;;;;11.00;100.00;97870.88;5996276;29;96344;-56
2024/03/04 01:44:06;;;;;;;;;61.25;47.00;;;;;10.87;100.00;97853.19;5996422;29;96542;-57
2024/03/04 01:47:14;;;;;;;;;57.20;46.80;;;;;10.95;100.00;97871.63;5995743;29;96339;-57
2024/03/04 01:50:17;;;;;;;;;59.00;45.00;;;;;10.95;100.00;97870.81;5996230;29;96383;-57
2024/03/04 01:53:21;;;;;;;;;60.20;47.00;;;;;10.89;100.00;97864.56;5995806;29;96355;-57
2024/03/04 01:56:24;;;;;;;;;57.60;45.00;;;;;10.96;100.00;97861.66;5996001;29;96431;-57
2024/03/04 01:59:29;;;;;;;;;62.00;47.00;;;;;10.96;100.00;97865.19;5978468;29;96477;-57
2024/03/04 02:02:33;;;;;;;;;58.00;45.00;;;;;10.96;100.00;97867.88;5997447;23;96400;-55
2024/03/04 02:05:36;;;;;;;;;61.20;46.00;;;;;10.93;100.00;97867.56;5959809;29;96408;-54
2024/03/04 02:08:40;;;;;;;;;61.00;47.75;;;;;10.94;100.00;97870.03;5976063;29;96687;-53
2024/03/04 02:11:43;;;;;;;;;57.80;45.00;;;;;10.92;100.00;97872.13;5976235;29;96880;-53
2024/03/04 02:14:48;;;;;;;;;57.60;46.00;;;;;10.75;100.00;97874.06;5976775;29;96974;-53
2024/03/04 02:17:52;;;;;;;;;55.25;45.00;;;;;10.85;100.00;97869.59;5976397;29;97098;-53
2024/03/04 02:21:00;;;;;;;;;58.60;46.00;;;;;10.90;100.00;97873.47;5956788;29;96394;-54
2024/03/04 02:24:05;;;;;;;;;57.50;45.00;;;;;10.87;100.00;97885.53;5936980;29;96613;-54
2024/03/04 02:27:09;;;;;;;;;56.00;44.50;;;;;10.96;100.00;97884.06;5936491;29;96961;-54
2024/03/04 02:30:13;;;;;;;;;56.20;43.60;;;;;11.00;100.00;97887.06;5953352;29;97273;-53
2024/03/04 02:33:20;;;;;;;;;56.75;43.50;;;;;11.00;100.00;97889.75;5953217;29;96387;-54
2024/03/04 02:36:23;;;;;;;;;56.75;45.00;;;;;11.05;100.00;97890.66;5952737;29;96219;-53
2024/03/04 02:39:29;;;;;;;;;57.50;45.50;;;;;11.08;100.00;97892.03;5931101;29;96360;-53
2024/03/04 02:42:32;;;;;;;;;57.60;44.40;;;;;11.08;100.00;97892.88;5927122;29;96678;-53
2024/03/04 02:45:35;;;;;;;;;56.40;45.60;;;;;11.06;100.00;97892.28;5953018;29;96339;-54
2024/03/04 02:48:38;;;;;;;;;55.40;44.00;;;;;10.95;100.00;97870.81;5953194;29;96290;-53
2024/03/04 02:51:41;;;;;;;;;56.00;44.00;;;;;11.10;100.00;97890.72;5953006;29;96335;-53
2024/03/04 02:54:46;;;;;;;;;54.50;42.00;;;;;11.10;100.00;97895.28;5952487;29;97600;-54
2024/03/04 02:57:49;;;;;;;;;56.20;43.20;;;;;11.01;100.00;97881.44;5952104;29;96233;-53
2024/03/04 03:00:52;;;;;;;;;56.00;43.75;;;;;11.07;100.00;97895.81;5948193;29;96549;-54
2024/03/04 03:03:55;;;;;;;;;55.25;44.25;;;;;11.06;100.00;97894.97;5935287;29;96727;-53
2024/03/04 03:06:59;;;;;;;;;58.00;45.40;;;;;10.89;100.00;97882.59;5956048;29;96192;-54
2024/03/04 03:10:05;;;;;;;;;53.50;42.50;;;;;10.83;100.00;97904.09;5956114;29;96410;-54
2024/03/04 03:13:08;;;;;;;;;53.60;42.00;;;;;10.82;100.00;97898.94;5940644;29;96420;-56
2024/03/04 03:16:18;;;;;;;;;55.50;44.00;;;;;10.74;100.00;97904.78;5975286;29;96162;-56
2024/03/04 03:19:23;;;;;;;;;55.00;44.00;;;;;10.61;100.00;97878.94;5974713;29;96340;-57
2024/03/04 03:22:26;;;;;;;;;56.50;44.00;;;;;10.62;100.00;97904.84;5958656;29;97091;-57
2024/03/04 03:25:31;;;;;;;;;52.60;43.00;;;;;10.56;100.00;97905.81;5973774;29;96348;-57
2024/03/04 03:28:34;;;;;;;;;55.00;44.00;;;;;10.40;100.00;97883.22;5973468;29;97286;-56
2024/03/04 03:31:37;;;;;;;;;52.50;42.00;;;;;10.48;100.00;97897.34;5965291;29;96582;-56
2024/03/04 03:34:40;;;;;;;;;53.00;43.00;;;;;10.56;100.00;97903.13;5965771;29;96388;-56
2024/03/04 03:37:43;;;;;;;;;52.60;42.00;;;;;10.53;100.00;97900.13;5973309;29;96408;-56
2024/03/04 03:40:48;;;;;;;;;52.60;43.00;;;;;10.53;100.00;97898.25;5972810;29;97889;-57
2024/03/04 03:43:52;;;;;;;;;54.40;43.40;;;;;10.51;100.00;97894.97;5972956;29;96415;-56
2024/03/04 03:46:55;;;;;;;;;53.00;44.00;;;;;10.35;100.00;97893.91;5971605;29;96313;-56
2024/03/04 03:49:58;;;;;;;;;57.00;44.00;;;;;10.32;100.00;97889.00;5974063;29;96341;-56
2024/03/04 03:53:01;;;;;;;;;55.80;45.00;;;;;10.38;100.00;97887.22;5974243;29;96320;-56
2024/03/04 03:56:06;;;;;;;;;56.80;43.80;;;;;10.24;100.00;97894.81;5973143;29;96301;-56
2024/03/04 03:59:09;;;;;;;;;52.20;42.00;;;;;10.24;100.00;97894.81;5974956;29;96144;-56
2024/03/04 04:02:12;;;;;;;;;57.00;44.00;;;;;10.20;100.00;97892.84;5974014;29;97004;-54
2024/03/04 04:05:16;;;;;;;;;56.60;45.60;;;;;10.04;100.00;97902.50;5973666;29;96463;-54
2024/03/04 04:08:19;;;;;;;;;53.00;43.00;;;;;9.90;100.00;97891.22;5957505;29;98409;-54
2024/03/04 04:11:24;;;;;;;;;56.25;43.00;;;;;9.86;100.00;97892.75;5972992;29;96231;-54
2024/03/04 04:14:27;;;;;;;;;57.00;45.00;;;;;9.95;100.00;97893.19;5973672;29;96388;-54
2024/03/04 04:17:30;;;;;;;;;51.40;43.00;;;;;9.94;100.00;97891.53;5957571;29;96255;-54
2024/03/04 04:20:33;;;;;;;;;52.80;42.60;;;;;9.91;100.00;97898.22;5974706;29;96374;-54
2024/03/04 04:23:37;;;;;;;;;55.60;43.00;;;;;9.55;100.00;97837.53;5955563;29;96371;-51
2024/03/04 04:26:41;;;;;;;;;53.00;44.00;;;;;9.92;100.00;97893.66;5952931;29;97105;-52
2024/03/04 04:29:44;;;;;;;;;54.60;44.00;;;;;9.88;100.00;97896.00;5949063;29;97060;-51
2024/03/04 04:32:48;;;;;;;;;52.25;41.50;;;;;9.85;100.00;97898.38;5952201;29;96509;-51
2024/03/04 04:35:51;;;;;;;;;53.00;43.60;;;;;9.80;100.00;97885.63;5937282;29;96289;-51
2024/03/04 04:38:54;;;;;;;;;54.60;42.60;;;;;9.96;100.00;97905.59;5955993;29;97073;-51
2024/03/04 04:41:59;;;;;;;;;57.00;44.00;;;;;9.90;100.00;97910.06;5954042;29;96361;-51
2024/03/04 04:45:02;;;;;;;;;55.80;44.20;;;;;9.86;100.00;97911.59;5954412;29;96280;-51
2024/03/04 04:48:06;;;;;;;;;55.50;44.50;;;;;9.79;100.00;97904.72;5952401;29;96577;-51
2024/03/04 04:51:09;;;;;;;;;56.60;44.80;;;;;9.84;100.00;97905.63;5951579;29;96317;-51
2024/03/04 04:54:14;;;;;;;;;55.00;44.00;;;;;9.80;100.00;97906.34;5933376;29;98580;-51
2024/03/04 04:57:19;;;;;;;;;54.00;44.00;;;;;9.91;100.00;97906.31;5950032;29;96304;-51
2024/03/04 05:00:23;;;;;;;;;53.40;43.40;;;;;9.85;100.00;97901.06;5951621;29;97774;-51
2024/03/04 05:03:26;;;;;;;;;59.50;46.00;;;;;9.92;100.00;97901.75;5952375;29;96322;-51
2024/03/04 05:06:49;;;;;;;;;56.60;44.20;;;;;9.88;100.00;97905.94;5957477;29;96516;-51
2024/03/04 05:09:52;;;;;;;;;57.20;45.20;;;;;9.92;100.00;97905.22;5952877;29;96307;-51
2024/03/04 05:12:57;;;;;;;;;56.00;46.00;;;;;9.99;100.00;97902.41;5951616;29;96346;-51
2024/03/04 05:16:00;;;;;;;;;57.60;44.00;;;;;10.15;100.00;97911.56;5950683;29;97285;-51
2024/03/04 05:19:04;;;;;;;;;56.00;44.00;;;;;10.14;100.00;97897.28;5944374;29;96400;-52
2024/03/04 05:22:09;;;;;;;;;60.50;46.75;;;;;10.16;100.00;97918.63;5949303;29;96575;-51
2024/03/04 05:25:13;;;;;;;;;57.80;46.00;;;;;10.09;100.00;97916.03;5929920;29;96946;-52
2024/03/04 05:28:18;;;;;;;;;59.20;46.00;;;;;10.00;100.00;97917.50;5947740;29;96589;-52
2024/03/04 05:31:21;;;;;;;;;58.00;46.00;;;;;10.07;100.00;97895.81;5955787;29;97019;-51
2024/03/04 05:34:25;;;;;;;;;60.00;46.00;;;;;10.15;100.00;97916.97;5945157;29;96674;-51
2024/03/04 05:37:28;;;;;;;;;55.75;44.50;;;;;10.21;100.00;97921.41;5952559;29;96415;-51
2024/03/04 05:40:31;;;;;;;;;58.00;46.75;;;;;10.35;100.00;97914.66;5953000;29;96299;-51
2024/03/04 05:43:36;;;;;;;;;58.60;46.60;;;;;10.38;100.00;97898.00;5948781;29;96053;-51
2024/03/04 05:46:39;;;;;;;;;57.80;44.00;;;;;10.55;100.00;97925.78;5949096;29;96433;-51
2024/03/04 05:49:42;;;;;;;;;56.20;44.60;;;;;10.47;100.00;97926.16;5948830;29;96653;-52
2024/03/04 05:52:46;;;;;;;;;55.60;43.40;;;;;10.18;100.00;97895.75;5952772;29;96557;-51
2024/03/04 05:55:49;;;;;;;;;53.40;43.00;;;;;10.38;100.00;97922.22;5946429;29;96485;-51
2024/03/04 05:58:54;;;;;;;;;54.40;43.00;;;;;10.35;100.00;97930.81;5948955;29;98492;-51
2024/03/04 06:01:58;;;;;;;;;59.80;46.20;;;;;10.10;100.00;97920.38;5954818;29;97123;-51
2024/03/04 06:05:02;;;;;;;;;55.00;43.50;;;;;10.22;100.00;97939.19;5940018;29;96710;-52
2024/03/04 06:08:05;;;;;;;;;58.80;45.20;;;;;10.16;100.00;97943.69;5955797;29;96508;-51
2024/03/04 06:11:08;;;;;;;;;58.00;45.40;;;;;10.16;100.00;97938.31;5937416;29;97870;-52
2024/03/04 06:14:13;;;;;;;;;55.00;44.00;;;;;10.14;100.00;97950.31;5951367;29;96399;-52
2024/03/04 06:17:16;;;;;;;;;58.40;45.00;;;;;10.26;100.00;97953.81;5950983;29;96321;-51
2024/03/04 06:20:19;;;;;;;;;56.00;45.00;;;;;9.97;100.00;97920.66;5945191;29;96509;-52
2024/03/04 06:23:23;;;;;;;;;55.80;44.00;;;;;10.14;100.00;97947.63;5949139;29;96277;-51
2024/03/04 06:26:26;;;;;;;;;55.00;44.00;;;;;9.95;100.00;97953.22;5951562;29;96842;-51
2024/03/04 06:29:32;;;;;;;;;56.67;45.00;;;;;9.97;100.00;97950.28;5952474;29;96393;-51
2024/03/04 06:32:36;;;;;;;;;55.00;44.00;;;;;9.94;100.00;97959.66;5947723;29;96717;-51
2024/03/04 06:35:39;;;;;;;;;56.20;44.80;;;;;9.91;100.00;97962.03;5949443;29;96663;-51
2024/03/04 06:38:42;;;;;;;;;57.00;43.40;;;;;10.09;100.00;97963.69;5930833;29;96444;-52
2024/03/04 06:41:45;;;;;;;;;56.25;45.25;;;;;10.00;100.00;97918.31;5953625;29;96392;-51
2024/03/04 06:44:49;;;;;;;;;56.80;44.40;;;;;10.37;100.00;97963.69;5955648;29;96507;-51
2024/03/04 06:47:53;;;;;;;;;56.00;44.00;;;;;10.50;100.00;97967.97;5955373;29;96466;-51
2024/03/04 06:50:56;;;;;;;;;56.80;44.00;;;;;10.69;100.00;97961.28;5954525;29;97103;-51
2024/03/04 06:53:59;;;;;;;;;60.00;45.40;;;;;10.70;100.00;97962.94;5955543;29;96493;-51
2024/03/04 06:57:02;;;;;;;;;58.40;46.00;;;;;10.67;100.00;97939.97;5955513;29;96436;-51
2024/03/04 07:00:11;;;;;;;;;55.25;44.25;;;;;10.78;100.00;97960.66;5955791;29;96438;-51
2024/03/04 07:03:15;;;;;;;;;57.40;46.00;;;;;10.84;100.00;97964.25;5955263;29;96383;-51
2024/03/04 07:06:18;;;;;;;;;56.00;44.00;;;;;10.59;100.00;97969.22;5955660;29;96469;-51
2024/03/04 07:09:21;;;;;;;;;55.40;44.00;;;;;10.48;100.00;97964.69;5955436;29;97504;-52
2024/03/04 07:12:24;;;;;;;;;57.00;44.00;;;;;10.69;100.00;97964.81;5955783;29;96312;-51
2024/03/04 07:15:29;;;;;;;;;58.40;44.40;;;;;10.81;100.00;97970.94;5938676;29;96789;-51
2024/03/04 07:18:32;;;;;;;;;57.00;44.25;;;;;10.48;100.00;97964.69;5953859;29;96261;-52
2024/03/04 07:21:35;;;;;;;;;57.50;46.00;;;;;10.13;100.00;97967.53;5955137;29;97166;-52
2024/03/04 07:24:38;;;;;;;;;55.00;44.40;;;;;10.07;100.00;97973.91;5938280;29;96858;-51
2024/03/04 07:27:41;;;;;;;;;57.00;46.00;;;;;10.07;100.00;97965.84;5955073;29;96434;-51
2024/03/04 07:30:47;;;;;;;;;55.00;44.00;;;;;10.39;100.00;97967.81;5955484;29;97044;-51
2024/03/04 07:33:50;;;;;;;;;56.00;44.00;;;;;10.41;100.00;97970.22;5954833;29;96582;-51
2024/03/04 07:36:53;;;;;;;;;59.00;46.40;;;;;10.58;100.00;97968.41;5954976;29;96789;-51
2024/03/04 07:39:56;;;;;;;;;56.00;43.80;;;;;10.49;100.00;97971.72;5955853;29;96475;-51
2024/03/04 07:43:01;;;;;;;;;55.20;44.00;;;;;10.66;100.00;97965.28;5954538;29;96434;-51
2024/03/04 07:46:05;;;;;;;;;56.60;44.00;;;;;10.92;100.00;97966.50;5937706;29;96356;-51
2024/03/04 07:49:09;;;;;;;;;56.60;44.40;;;;;11.17;100.00;97966.09;5954575;29;97164;-51
2024/03/04 07:52:12;;;;;;;;;57.00;45.00;;;;;11.38;100.00;97964.50;5954779;29;96967;-51
2024/03/04 07:55:16;;;;;;;;;59.00;44.20;;;;;11.54;100.00;97971.72;5967666;29;96494;-55
2024/03/04 07:58:19;;;;;;;;;58.40;46.00;;;;;11.83;100.00;97973.19;5975849;29;96326;-55
2024/03/04 08:01:23;;;;;;;;;61.60;46.60;;;;;12.12;100.00;97971.09;5975152;29;96364;-55
2024/03/04 08:04:27;;;;;;;;;58.40;46.00;;;;;12.20;100.00;97975.25;5959048;29;96891;-55
2024/03/04 08:07:30;;;;;;;;;60.00;47.00;;;;;12.34;100.00;97962.94;5978480;29;96597;-55
2024/03/04 08:10:34;;;;;;;;;58.00;46.00;;;;;12.50;100.00;97976.38;5978330;29;96531;-56
2024/03/04 08:13:37;;;;;;;;;60.75;46.00;;;;;12.59;100.00;97952.38;5978418;29;96376;-55
2024/03/04 08:16:42;;;;;;;;;61.20;47.20;;;;;12.85;100.00;97970.44;5962192;29;97175;-55
2024/03/04 08:19:45;;;;;;;;;58.00;46.00;;;;;12.91;100.00;97974.81;5978384;29;97065;-55
2024/03/04 08:22:49;;;;;;;;;57.40;46.00;;;;;12.89;100.00;97970.75;5978583;29;96392;-55
2024/03/04 08:25:52;;;;;;;;;60.40;46.60;;;;;13.05;100.00;97967.06;5978233;29;96945;-55
2024/03/04 08:28:58;;;;;;;;;57.75;46.00;;;;;13.27;100.00;97981.34;5978630;29;96319;-55
2024/03/04 08:32:04;;;;;;;;;58.00;46.00;;;;;13.83;100.00;97976.22;5978246;29;96393;-55
2024/03/04 08:35:07;;;;;;;;;57.50;45.50;;;;;14.33;100.00;97967.44;5978330;29;96647;-55
2024/03/04 08:38:11;;;;;;;;;59.25;46.00;;;;;15.49;100.00;97969.38;5960914;29;96374;-55
2024/03/04 08:41:15;;;;;;;;;56.40;44.40;;;;;16.81;100.00;97975.78;5976553;29;96300;-55
2024/03/04 08:44:19;;;;;;;;;60.20;45.20;;;;;18.99;100.00;97984.19;5974498;29;96806;-55
2024/03/04 08:47:26;;;;;;;;;55.00;43.25;;;;;20.09;100.00;97957.81;5973304;29;96369;-56
2024/03/04 08:50:29;;;;;;;;;56.25;44.25;;;;;20.59;100.00;97978.66;5975228;29;96361;-56
2024/03/04 08:53:32;;;;;;;;;54.60;44.00;;;;;21.43;100.00;97972.50;5972765;29;96917;-56
2024/03/04 08:56:35;;;;;;;;;55.60;44.00;;;;;22.18;100.00;97975.13;5971273;29;96394;-55
2024/03/04 08:59:39;;;;;;;;;55.50;43.75;;;;;24.12;100.00;97974.75;5971935;29;96433;-56
2024/03/04 09:02:44;;;;;;;;;52.80;42.80;;;;;27.08;100.00;97976.44;5971532;29;96408;-56
2024/03/04 09:05:47;;;;;;;;;52.00;42.00;;;;;30.51;93.44;97967.47;5959294;29;96466;-52
2024/03/04 09:08:51;;;;;;;;;53.40;41.60;;;;;33.38;76.66;97963.81;5953713;29;96213;-52
2024/03/04 09:11:54;;;;;;;;;55.00;44.00;;;;;35.82;64.05;97957.03;5952816;29;96337;-52
2024/03/04 09:14:57;;;;;;;;;51.80;41.60;;;;;37.59;57.25;97944.78;5952516;29;96976;-52
2024/03/04 09:18:02;;;;;;;;;49.80;41.40;;;;;39.11;52.86;97949.81;5947838;29;96300;-53
2024/03/04 09:21:07;;;;;;;;;50.25;41.00;;;;;40.35;48.23;97952.66;5929996;29;97443;-54
2024/03/04 09:24:10;;;;;;;;;50.00;41.00;;;;;41.33;45.50;97951.19;5939231;29;96935;-53
2024/03/04 09:27:14;;;;;;;;;50.00;40.40;;;;;42.34;42.20;97944.78;5953945;29;96994;-53
2024/03/04 09:30:17;;;;;;;;;52.00;41.00;;;;;42.36;38.71;97942.28;5951708;29;97714;-55
2024/03/04 09:33:23;;;;;;;;;47.00;39.00;;;;;42.78;40.53;97940.00;5954029;29;96088;-54
2024/03/04 09:36:26;;;;;;;;;48.80;40.20;;;;;43.68;39.45;97943.94;5953731;29;96458;-54
2024/03/04 09:39:29;;;;;;;;;49.50;40.00;;;;;44.13;38.10;97927.09;5953329;29;96357;-54
2024/03/04 09:42:34;;;;;;;;;49.00;40.00;;;;;44.59;35.87;97930.00;5953701;29;96600;-54
2024/03/04 09:45:40;;;;;;;;;47.00;39.00;;;;;45.09;36.39;97934.31;5954080;29;96732;-54
2024/03/04 09:48:48;;;;;;;;;46.00;39.00;;;;;45.61;36.21;97930.22;5953875;29;97115;-54
2024/03/04 09:51:52;;;;;;;;;47.00;39.00;;;;;45.97;34.78;97932.94;5953804;29;96988;-54
2024/03/04 09:54:57;;;;;;;;;46.60;38.20;;;;;46.76;34.69;97939.13;5953105;29;96378;-54
2024/03/04 09:58:05;;;;;;;;;45.00;37.50;;;;;47.18;32.34;97926.69;5952667;29;96286;-55
2024/03/04 10:01:09;;;;;;;;;46.00;38.20;;;;;47.72;32.27;97922.47;5951630;29;96847;-54
2024/03/04 10:04:15;;;;;;;;;47.00;38.00;;;;;47.31;31.87;97922.28;5951968;29;96496;-53
2024/03/04 10:07:18;;;;;;;;;45.60;37.00;;;;;47.87;31.06;97914.66;5970825;29;96428;-55
2024/03/04 10:10:22;;;;;;;;;46.00;39.00;;;;;48.15;31.71;97901.59;5922500;29;96718;-54
2024/03/04 10:13:26;;;;;;;;;46.33;38.67;;;;;47.02;31.72;97901.50;5951229;29;97111;-53
2024/03/04 10:16:29;;;;;;;;;41.40;35.60;;;;;47.79;31.53;97900.03;5952008;29;97331;-56
2024/03/04 10:19:33;;;;;;;;;41.20;35.00;;;;;46.90;28.57;97852.81;5950791;29;96574;-57
2024/03/04 10:22:38;;;;;;;;;43.50;35.50;;;;;47.21;30.86;97895.09;5951205;29;97261;-56
2024/03/04 10:25:41;;;;;;;;;40.50;35.00;;;;;47.48;30.79;97896.88;5951582;29;97081;-56
2024/03/04 10:28:45;;;;;;;;;41.40;34.00;;;;;48.03;30.82;97888.44;5953785;29;96349;-56
2024/03/04 10:31:50;;;;;;;;;39.80;34.40;;;;;48.26;30.53;97892.38;5953880;29;96693;-56
2024/03/04 10:35:04;;;;;;;;;38.80;33.80;;;;;46.88;28.44;97875.28;5953938;29;96967;-56
2024/03/04 10:38:07;;;;;;;;;39.40;33.20;;;;;45.74;31.01;97865.31;5954102;29;96286;-56
2024/03/04 10:41:16;;;;;;;;;37.60;32.00;;;;;45.51;30.44;97877.44;5953686;29;96117;-56
2024/03/04 10:44:25;;;;;;;;;41.20;35.40;;;;;44.49;33.34;97865.88;5953906;29;96811;-56
2024/03/04 10:47:31;;;;;;;;;41.80;35.00;;;;;41.98;35.10;97850.94;5953973;29;96486;-56
2024/03/04 10:50:36;;;;;;;;;40.60;34.00;;;;;40.50;37.49;97835.22;5953392;29;96422;-56
2024/03/04 10:53:39;;;;;;;;;40.00;33.00;;;;;39.44;40.87;97851.28;5953394;29;96421;-55
2024/03/04 10:56:57;;;;;;;;;44.75;36.25;;;;;37.41;44.93;97834.56;5953244;29;96335;-55
2024/03/04 11:00:10;;;;;;;;;40.20;34.40;;;;;36.10;48.33;97838.19;5953786;29;98334;-55
2024/03/04 11:03:16;;;;;;;;;38.20;32.20;;;;;33.85;53.93;97834.09;5952996;29;96507;-55
2024/03/04 11:06:25;;;;;;;;;43.60;35.00;;;;;31.97;62.04;97818.69;5953332;29;96428;-55
2024/03/04 11:09:28;;;;;;;;;40.00;33.50;;;;;30.65;65.83;97832.50;5953392;29;96378;-54
2024/03/04 11:12:34;;;;;;;;;43.60;35.00;;;;;28.92;74.79;97825.00;5952930;29;97055;-54
2024/03/04 11:15:43;;;;;;;;;43.00;36.00;;;;;27.62;85.01;97824.50;5953168;29;97041;-55
2024/03/04 11:18:59;;;;;;;;;45.00;36.25;;;;;26.88;90.95;97826.13;5953188;29;96631;-54
2024/03/04 11:22:05;;;;;;;;;42.67;35.00;;;;;26.59;95.78;97824.50;5953117;29;97547;-54
2024/03/04 11:25:09;;;;;;;;;44.80;35.00;;;;;25.92;100.00;97819.75;5952508;29;96380;-54
2024/03/04 11:28:18;;;;;;;;;47.80;38.00;;;;;25.17;100.00;97819.25;5952839;29;97246;-54
2024/03/04 11:31:26;;;;;;;;;45.80;36.40;;;;;24.61;100.00;97823.56;5952822;29;96555;-54
2024/03/04 11:34:29;;;;;;;;;45.20;36.20;;;;;24.10;100.00;97825.56;5953139;29;96402;-54
2024/03/04 11:37:49;;;;;;;;;49.00;39.00;;;;;23.46;100.00;97822.25;5934837;29;97797;-54
2024/03/04 11:40:57;;;;;;;;;48.20;38.80;;;;;23.08;100.00;97813.16;5952984;29;96495;-54
2024/03/04 11:44:00;;;;;;;;;46.00;38.40;;;;;23.19;100.00;97811.69;5953251;29;96636;-54
2024/03/04 11:47:11;;;;;;;;;46.00;38.00;;;;;23.35;100.00;97809.19;5952417;29;96522;-54
2024/03/04 11:50:45;;;;;;;;;45.00;36.60;;;;;23.22;100.00;97805.50;5950567;29;97032;-55
2024/03/04 11:53:55;;;;;;;;;44.00;35.00;;;;;22.98;100.00;97805.28;5946190;29;97028;-55
2024/03/04 11:56:59;;;;;;;;;43.40;36.00;;;;;22.34;100.00;97806.03;5945924;29;96383;-54
2024/03/04 12:00:09;;;;;;;;;46.40;37.00;;;;;22.12;100.00;97808.13;5944702;29;98208;-54
2024/03/04 12:03:14;;;;;;;;;48.00;39.00;;;;;21.79;100.00;97796.78;5948502;29;97217;-54
2024/03/04 12:06:18;;;;;;;;;46.40;38.00;;;;;21.51;100.00;97798.97;5935807;29;97082;-54
2024/03/04 12:09:25;;;;;;;;;46.00;37.60;;;;;21.29;100.00;97808.13;5952466;29;96406;-54
2024/03/04 12:12:48;;;;;;;;;45.60;37.60;;;;;21.16;100.00;97803.53;5952623;29;96496;-53
2024/03/04 12:15:56;;;;;;;;;46.00;38.00;;;;;21.06;100.00;97814.78;5951852;29;96519;-53
2024/03/04 12:19:00;;;;;;;;;45.75;37.00;;;;;20.94;100.00;97795.38;5951547;29;96458;-53
2024/03/04 12:22:04;;;;;;;;;44.60;36.20;;;;;20.63;100.00;97776.19;5951224;29;97009;-53
2024/03/04 12:25:10;;;;;;;;;45.40;36.00;;;;;20.58;100.00;97811.91;5952008;29;96373;-53
2024/03/04 12:28:18;;;;;;;;;46.00;36.25;;;;;20.42;100.00;97800.56;5951921;29;96807;-53
2024/03/04 12:31:21;;;;;;;;;43.33;36.00;;;;;20.15;100.00;97789.69;5942414;29;96456;-54
2024/03/04 12:34:28;;;;;;;;;43.00;36.00;;;;;20.11;100.00;97802.38;5951252;29;97043;-53
2024/03/04 12:37:31;;;;;;;;;42.00;35.00;;;;;19.98;100.00;97808.69;5956086;29;96411;-51
2024/03/04 12:40:36;;;;;;;;;45.40;33.60;;;;;19.89;100.00;97805.88;5956027;29;96812;-51
2024/03/04 12:43:39;;;;;;;;;43.40;36.00;;;;;19.83;100.00;97797.00;5956313;29;97027;-52
2024/03/04 12:46:42;;;;;;;;;41.40;34.20;;;;;19.73;100.00;97786.28;5955249;29;96701;-52
2024/03/04 12:49:46;;;;;;;;;40.80;35.00;;;;;19.79;100.00;97804.16;5953652;29;96353;-51
2024/03/04 12:52:50;;;;;;;;;43.00;34.80;;;;;19.73;100.00;97790.94;5956110;29;96382;-51
2024/03/04 12:55:54;;;;;;;;;45.40;37.40;;;;;19.59;100.00;97793.72;5955330;29;96405;-51
2024/03/04 12:58:58;;;;;;;;;47.50;39.00;;;;;19.46;100.00;97809.00;5955201;29;96675;-52
2024/03/04 13:02:01;;;;;;;;;51.00;40.60;;;;;19.31;100.00;97800.25;5952215;29;96563;-52
2024/03/04 13:05:05;;;;;;;;;49.40;40.60;;;;;19.22;100.00;97815.75;5937572;29;96908;-51
2024/03/04 13:08:11;;;;;;;;;53.50;43.00;;;;;19.08;100.00;97785.69;5957315;29;96279;-52
2024/03/04 13:11:17;;;;;;;;;56.40;44.40;;;;;18.98;100.00;97775.78;5962875;29;96581;-52
2024/03/04 13:14:20;;;;;;;;;56.00;43.60;;;;;18.93;100.00;97777.81;5951993;29;96436;-51
2024/03/04 13:17:23;;;;;;;;;58.00;44.00;;;;;18.84;100.00;97776.88;5946927;29;96403;-52
2024/03/04 13:20:26;;;;;;;;;55.00;43.00;;;;;18.84;100.00;97782.34;5967089;29;96330;-51
2024/03/04 13:23:30;;;;;;;;;56.40;44.60;;;;;18.76;100.00;97783.88;5964314;29;97192;-51
2024/03/04 13:26:34;;;;;;;;;53.00;42.00;;;;;18.65;100.00;97774.25;5965436;29;96850;-51
2024/03/04 13:29:38;;;;;;;;;54.20;43.60;;;;;18.54;100.00;97759.97;5944668;29;96311;-52
2024/03/04 13:32:41;;;;;;;;;52.60;42.40;;;;;18.50;100.00;97788.13;5967837;29;96762;-52
2024/03/04 13:35:44;;;;;;;;;54.00;42.00;;;;;18.50;100.00;97799.03;5938228;29;96703;-51
2024/03/04 13:38:50;;;;;;;;;51.00;42.20;;;;;18.38;100.00;97790.50;5952507;29;96327;-53
2024/03/04 13:41:55;;;;;;;;;51.50;40.75;;;;;18.26;100.00;97769.16;5944677;29;96227;-51
2024/03/04 13:44:58;;;;;;;;;51.20;42.20;;;;;18.22;100.00;97770.06;5939986;29;97093;-51
2024/03/04 13:48:05;;;;;;;;;51.25;41.00;;;;;18.18;100.00;97784.28;5946096;29;96785;-52
2024/03/04 13:51:08;;;;;;;;;52.60;43.00;;;;;17.99;100.00;97788.13;5949721;29;96434;-52
2024/03/04 13:54:13;;;;;;;;;55.40;43.40;;;;;17.69;100.00;97784.75;5952686;29;96789;-52
2024/03/04 13:57:17;;;;;;;;;52.00;42.00;;;;;17.80;100.00;97779.97;5931874;29;96431;-52
2024/03/04 14:00:22;;;;;;;;;53.60;41.60;;;;;17.85;100.00;97784.53;5953674;29;96496;-52
2024/03/04 14:03:25;;;;;;;;;53.40;43.80;;;;;17.89;100.00;97783.63;5950746;29;96499;-52